createdAt,value
2023-04-26T00:02:18.599Z,4.80
2023-04-26T00:04:47.300Z,4.80
2023-04-26T00:07:15.760Z,4.80
2023-04-26T00:09:44.498Z,4.80
2023-04-26T00:12:12.164Z,4.80
2023-04-26T00:14:39.116Z,4.70
2023-04-26T00:17:06.194Z,4.70
2023-04-26T00:19:32.954Z,4.70
2023-04-26T00:21:59.716Z,4.70
2023-04-26T00:24:26.412Z,4.80
2023-04-26T00:26:56.354Z,4.80
2023-04-26T00:29:23.757Z,4.80
2023-04-26T00:31:50.684Z,4.70
2023-04-26T00:34:17.814Z,4.60
2023-04-26T00:36:44.492Z,4.60
2023-04-26T00:39:11.477Z,4.60
2023-04-26T00:41:38.228Z,4.60
2023-04-26T00:44:05.080Z,4.60
2023-04-26T00:46:32.129Z,4.50
2023-04-26T00:48:58.868Z,4.50
2023-04-26T00:51:27.121Z,4.40
2023-04-26T00:53:54.004Z,4.40
2023-04-26T00:56:22.064Z,4.40
2023-04-26T00:58:49.189Z,4.30
2023-04-26T01:01:16.061Z,4.30
2023-04-26T01:03:45.217Z,4.30
2023-04-26T01:06:12.635Z,4.20
2023-04-26T01:08:39.661Z,4.10
2023-04-26T01:11:07.288Z,4.00
2023-04-26T01:13:35.459Z,3.90
2023-04-26T01:16:02.478Z,3.90
2023-04-26T01:18:29.240Z,3.80
2023-04-26T01:20:57.157Z,3.80
2023-04-26T01:23:23.900Z,3.90
2023-04-26T01:25:50.688Z,3.80
2023-04-26T01:28:17.625Z,3.90
2023-04-26T01:30:47.402Z,3.90
2023-04-26T01:33:15.776Z,4.00
2023-04-26T01:35:42.495Z,3.90
2023-04-26T01:38:09.290Z,4.00
2023-04-26T01:40:36.292Z,4.10
2023-04-26T01:43:06.391Z,4.20
2023-04-26T01:45:33.107Z,4.20
2023-04-26T01:48:18.328Z,4.20
2023-04-26T01:50:45.049Z,4.20
2023-04-26T01:53:13.261Z,4.20
2023-04-26T01:55:41.397Z,4.10
2023-04-26T01:58:09.779Z,4.00
2023-04-26T02:00:36.514Z,4.00
2023-04-26T02:03:04.192Z,3.90
2023-04-26T02:05:31.014Z,3.80
2023-04-26T02:07:57.706Z,3.70
2023-04-26T02:10:24.466Z,3.70
2023-04-26T02:12:51.216Z,3.60
2023-04-26T02:15:18.076Z,3.60
2023-04-26T02:17:44.897Z,3.50
2023-04-26T02:20:12.266Z,3.50
2023-04-26T02:22:39.125Z,3.40
2023-04-26T02:25:06.651Z,3.20
2023-04-26T02:27:33.696Z,3.20
2023-04-26T02:30:00.881Z,3.20
2023-04-26T02:32:27.673Z,3.20
2023-04-26T02:34:54.473Z,3.20
2023-04-26T02:37:22.159Z,3.10
2023-04-26T02:39:52.135Z,3.10
2023-04-26T02:42:18.948Z,3.00
2023-04-26T02:44:46.745Z,3.00
2023-04-26T02:47:13.476Z,2.90
2023-04-26T02:49:40.367Z,2.80
2023-04-26T02:52:07.182Z,2.80
2023-04-26T02:54:34.216Z,2.90
2023-04-26T02:57:01.088Z,2.90
2023-04-26T02:59:27.776Z,2.90
2023-04-26T03:01:55.580Z,2.80
2023-04-26T03:04:23.073Z,2.80
2023-04-26T03:06:49.831Z,2.80
2023-04-26T03:09:16.491Z,2.70
2023-04-26T03:11:43.399Z,2.70
2023-04-26T03:14:10.740Z,2.70
2023-04-26T03:16:44.545Z,2.60
2023-04-26T03:19:11.492Z,2.60
2023-04-26T03:21:39.689Z,2.50
2023-04-26T03:24:07.652Z,2.50
2023-04-26T03:26:34.502Z,2.40
2023-04-26T03:29:01.970Z,2.40
2023-04-26T03:31:28.899Z,2.30
2023-04-26T03:33:55.702Z,2.30
2023-04-26T03:36:22.549Z,2.30
2023-04-26T03:38:49.377Z,2.30
2023-04-26T03:41:17.842Z,2.30
2023-04-26T03:43:44.818Z,2.40
2023-04-26T03:46:11.554Z,2.30
2023-04-26T03:48:38.287Z,2.50
2023-04-26T03:51:05.024Z,2.40
2023-04-26T03:53:32.712Z,2.40
2023-04-26T03:55:59.493Z,2.30
2023-04-26T03:58:26.777Z,2.20
2023-04-26T04:00:57.154Z,2.10
2023-04-26T04:03:24.205Z,2.10
2023-04-26T04:05:52.128Z,2.00
2023-04-26T04:08:18.816Z,2.00
2023-04-26T04:10:45.665Z,2.00
2023-04-26T04:13:12.524Z,1.90
2023-04-26T04:15:39.597Z,1.90
2023-04-26T04:18:06.477Z,1.90
2023-04-26T04:20:33.512Z,1.90
2023-04-26T04:23:03.524Z,1.90
2023-04-26T04:25:30.460Z,1.90
2023-04-26T04:28:02.144Z,1.90
2023-04-26T04:30:29.831Z,1.90
2023-04-26T04:32:59.476Z,1.90
2023-04-26T04:35:28.672Z,1.90
2023-04-26T04:37:59.352Z,1.90
2023-04-26T04:40:27.487Z,1.90
2023-04-26T04:42:55.613Z,1.90
2023-04-26T04:45:23.868Z,2.00
2023-04-26T04:47:56.280Z,2.10
2023-04-26T04:50:23.512Z,2.20
2023-04-26T04:52:50.488Z,2.30
2023-04-26T04:55:17.737Z,2.40
2023-04-26T04:57:44.960Z,2.40
2023-04-26T05:00:13.068Z,2.40
2023-04-26T05:02:58.705Z,2.40
2023-04-26T05:05:26.781Z,2.50
2023-04-26T05:08:21.040Z,2.50
2023-04-26T05:10:57.179Z,2.60
2023-04-26T05:13:25.010Z,2.70
2023-04-26T05:15:51.943Z,2.70
2023-04-26T05:18:20.039Z,2.70
2023-04-26T05:20:47.226Z,2.80
2023-04-26T05:23:14.231Z,2.90
2023-04-26T05:25:42.418Z,3.00
2023-04-26T05:28:29.165Z,3.00
2023-04-26T05:31:34.375Z,3.10
2023-04-26T05:34:19.347Z,3.30
2023-04-26T05:36:51.508Z,3.50
2023-04-26T05:39:20.512Z,3.60
2023-04-26T05:41:48.022Z,3.80
2023-04-26T05:44:14.940Z,3.80
2023-04-26T05:46:41.951Z,3.90
2023-04-26T05:49:10.344Z,3.90
2023-04-26T05:51:37.212Z,3.90
2023-04-26T05:54:04.627Z,3.80
2023-04-26T05:56:31.293Z,3.80
2023-04-26T05:58:58.377Z,3.90
2023-04-26T06:01:25.862Z,4.00
2023-04-26T06:03:54.377Z,4.20
2023-04-26T06:06:23.478Z,4.40
2023-04-26T06:08:50.248Z,4.70
2023-04-26T06:11:17.085Z,5.00
2023-04-26T06:13:43.817Z,5.20
2023-04-26T06:16:10.890Z,5.40
2023-04-26T06:18:37.656Z,5.60
2023-04-26T06:21:06.529Z,5.80
2023-04-26T06:23:33.255Z,5.90
2023-04-26T06:26:00.846Z,6.00
2023-04-26T06:28:27.709Z,6.00
2023-04-26T06:30:54.462Z,6.00
2023-04-26T06:33:21.271Z,6.00
2023-04-26T06:35:48.136Z,6.10
2023-04-26T06:38:15.052Z,6.20
2023-04-26T06:40:42.652Z,6.40
2023-04-26T06:43:10.910Z,6.60
2023-04-26T06:45:58.869Z,6.80
2023-04-26T06:48:25.707Z,7.10
2023-04-26T06:50:52.501Z,7.20
2023-04-26T06:53:20.241Z,7.20
2023-04-26T06:55:48.638Z,7.20
2023-04-26T06:58:15.700Z,7.50
2023-04-26T07:00:42.545Z,7.70
2023-04-26T07:03:09.558Z,8.00
2023-04-26T07:05:36.586Z,8.30
2023-04-26T07:08:03.607Z,8.40
2023-04-26T07:10:31.551Z,8.60
2023-04-26T07:12:58.288Z,8.70
2023-04-26T07:15:25.052Z,8.90
2023-04-26T07:17:51.786Z,9.10
2023-04-26T07:20:21.149Z,9.20
2023-04-26T07:22:47.951Z,9.50
2023-04-26T07:25:14.716Z,9.50
2023-04-26T07:27:41.494Z,9.60
2023-04-26T07:30:10.233Z,9.70
2023-04-26T07:32:37.473Z,9.90
2023-04-26T07:35:15.009Z,10.00
2023-04-26T07:37:43.408Z,10.00
2023-04-26T07:40:11.792Z,10.20
2023-04-26T07:42:38.510Z,10.10
2023-04-26T07:45:06.289Z,10.20
2023-04-26T07:47:32.987Z,10.10
2023-04-26T07:49:59.777Z,10.10
2023-04-26T07:52:26.445Z,10.00
2023-04-26T07:54:53.661Z,10.00
2023-04-26T07:57:20.357Z,10.20
2023-04-26T07:59:46.980Z,10.30
2023-04-26T08:02:13.955Z,10.50
2023-04-26T08:04:48.839Z,10.60
2023-04-26T08:07:16.559Z,10.60
2023-04-26T08:09:43.289Z,10.70
2023-04-26T08:12:11.246Z,10.80
2023-04-26T08:14:38.580Z,10.80
2023-04-26T08:17:09.968Z,10.90
2023-04-26T08:19:37.054Z,10.90
2023-04-26T08:22:04.121Z,10.80
2023-04-26T08:24:30.763Z,11.10
2023-04-26T08:26:58.960Z,11.40
2023-04-26T08:29:27.696Z,11.60
2023-04-26T08:31:54.928Z,11.40
2023-04-26T08:34:21.650Z,11.30
2023-04-26T08:36:48.353Z,11.20
2023-04-26T08:39:15.280Z,11.20
2023-04-26T08:41:54.420Z,11.50
2023-04-26T08:44:25.075Z,11.50
2023-04-26T08:47:06.340Z,11.60
2023-04-26T08:49:48.673Z,11.80
2023-04-26T08:52:17.053Z,11.70
2023-04-26T08:54:45.823Z,11.60
2023-04-26T08:57:12.831Z,11.50
2023-04-26T08:59:39.959Z,11.50
2023-04-26T09:02:07.695Z,11.80
2023-04-26T09:04:34.906Z,12.00
2023-04-26T09:07:03.530Z,12.10
2023-04-26T09:09:42.369Z,12.30
2023-04-26T09:12:09.768Z,12.60
2023-04-26T09:14:36.474Z,12.90
2023-04-26T09:17:03.321Z,12.70
2023-04-26T09:19:40.234Z,12.40
2023-04-26T09:22:07.469Z,12.00
2023-04-26T09:24:48.173Z,11.90
2023-04-26T09:27:16.476Z,11.80
2023-04-26T09:30:05.622Z,11.80
2023-04-26T09:32:46.966Z,12.10
2023-04-26T09:35:37.122Z,12.20
2023-04-26T09:38:12.254Z,11.90
2023-04-26T09:40:48.132Z,11.90
2023-04-26T09:43:20.089Z,12.10
2023-04-26T09:45:57.788Z,12.10
2023-04-26T09:48:32.084Z,12.20
2023-04-26T09:51:04.664Z,12.60
2023-04-26T09:53:39.174Z,13.10
2023-04-26T09:56:14.156Z,13.20
2023-04-26T09:58:59.607Z,12.70
2023-04-26T10:01:31.520Z,12.60
2023-04-26T10:04:02.059Z,12.90
2023-04-26T10:06:29.408Z,13.20
2023-04-26T10:08:56.924Z,13.40
2023-04-26T10:11:26.300Z,13.60
2023-04-26T10:13:53.071Z,13.60
2023-04-26T10:16:22.899Z,13.70
2023-04-26T10:18:50.866Z,13.70
2023-04-26T10:21:26.188Z,13.70
2023-04-26T10:23:53.235Z,13.70
2023-04-26T10:26:59.559Z,14.10
2023-04-26T10:29:55.017Z,14.30
2023-04-26T10:32:22.694Z,14.40
2023-04-26T10:35:13.311Z,14.40
2023-04-26T10:38:01.810Z,14.60
2023-04-26T10:40:37.289Z,14.60
2023-04-26T10:43:15.711Z,14.50
2023-04-26T10:45:43.657Z,14.30
2023-04-26T10:48:31.400Z,14.50
2023-04-26T10:51:01.326Z,14.70
2023-04-26T10:53:48.419Z,14.90
2023-04-26T10:56:24.066Z,14.80
2023-04-26T11:01:41.120Z,14.30
2023-04-26T11:04:12.519Z,14.20
2023-04-26T11:06:51.901Z,14.00
2023-04-26T11:09:37.783Z,13.40
2023-04-26T11:12:12.505Z,13.00
2023-04-26T11:14:41.749Z,13.00
2023-04-26T11:17:09.991Z,13.20
2023-04-26T11:19:36.909Z,13.40
2023-04-26T11:22:07.855Z,13.40
2023-04-26T11:24:38.849Z,13.10
2023-04-26T11:27:10.190Z,13.10
2023-04-26T11:29:37.364Z,13.00
2023-04-26T11:32:04.783Z,12.90
2023-04-26T11:34:39.405Z,13.00
2023-04-26T11:37:08.998Z,13.00
2023-04-26T11:39:37.092Z,13.20
2023-04-26T11:42:08.050Z,13.20
2023-04-26T11:44:35.600Z,13.10
2023-04-26T11:47:06.384Z,13.00
2023-04-26T11:49:35.558Z,13.30
2023-04-26T11:52:04.927Z,13.60
2023-04-26T11:54:35.951Z,13.70
2023-04-26T11:57:16.649Z,13.50
2023-04-26T11:59:45.074Z,13.20
2023-04-26T12:02:12.142Z,12.80
2023-04-26T12:04:41.458Z,12.70
2023-04-26T12:07:08.618Z,12.80
2023-04-26T12:09:41.120Z,13.10
2023-04-26T12:12:08.269Z,13.40
2023-04-26T12:14:41.152Z,13.70
2023-04-26T12:17:08.321Z,14.20
2023-04-26T12:19:36.632Z,14.50
2023-04-26T12:22:07.242Z,14.80
2023-04-26T12:24:36.613Z,14.70
2023-04-26T12:27:06.540Z,14.50
2023-04-26T12:29:33.606Z,14.00
2023-04-26T12:32:02.968Z,13.80
2023-04-26T12:34:30.997Z,14.20
2023-04-26T12:37:00.925Z,14.20
2023-04-26T12:39:27.776Z,14.70
2023-04-26T12:41:55.113Z,14.70
2023-04-26T12:44:22.597Z,14.70
2023-04-26T12:47:09.967Z,14.80
2023-04-26T12:49:36.857Z,14.50
2023-04-26T12:52:03.704Z,14.70
2023-04-26T12:54:30.396Z,14.70
2023-04-26T12:56:57.118Z,14.60
2023-04-26T12:59:23.930Z,14.60
2023-04-26T13:01:50.732Z,14.60
2023-04-26T13:04:17.636Z,14.80
2023-04-26T13:06:46.312Z,14.80
2023-04-26T13:09:13.833Z,14.70
2023-04-26T13:11:40.832Z,14.80
2023-04-26T13:14:10.668Z,14.60
2023-04-26T13:16:42.278Z,14.50
2023-04-26T13:19:12.011Z,14.90
2023-04-26T13:21:38.832Z,14.70
2023-04-26T13:24:06.174Z,14.40
2023-04-26T13:26:32.919Z,14.20
2023-04-26T13:28:59.710Z,14.20
2023-04-26T13:31:26.891Z,14.70
2023-04-26T13:33:53.677Z,15.00
2023-04-26T13:36:20.703Z,15.20
2023-04-26T13:38:47.624Z,15.10
2023-04-26T13:41:15.250Z,15.40
2023-04-26T13:43:41.939Z,15.60
2023-04-26T13:46:08.635Z,15.70
2023-04-26T13:48:35.359Z,15.30
2023-04-26T13:51:03.249Z,15.10
2023-04-26T13:53:31.268Z,14.80
2023-04-26T13:55:58.012Z,14.60
2023-04-26T13:58:24.849Z,14.50
2023-04-26T14:00:52.339Z,14.50
2023-04-26T14:03:19.135Z,14.60
2023-04-26T14:05:46.243Z,14.90
2023-04-26T14:08:13.011Z,15.10
2023-04-26T14:10:39.776Z,15.10
2023-04-26T14:13:06.733Z,15.00
2023-04-26T14:15:33.529Z,14.80
2023-04-26T14:18:00.494Z,15.00
2023-04-26T14:20:27.219Z,15.10
2023-04-26T14:22:53.947Z,15.00
2023-04-26T14:25:20.795Z,14.70
2023-04-26T14:27:48.315Z,14.70
2023-04-26T14:30:15.095Z,14.50
2023-04-26T14:32:41.983Z,14.30
2023-04-26T14:35:11.826Z,14.40
2023-04-26T14:37:38.675Z,14.20
2023-04-26T14:40:09.068Z,14.10
2023-04-26T14:42:36.409Z,14.10
2023-04-26T14:45:03.663Z,14.10
2023-04-26T14:47:31.111Z,14.10
2023-04-26T14:49:57.914Z,14.40
2023-04-26T14:52:27.069Z,14.60
2023-04-26T14:54:53.867Z,14.50
2023-04-26T14:57:20.604Z,14.50
2023-04-26T14:59:48.092Z,14.80
2023-04-26T15:02:22.669Z,15.10
2023-04-26T15:04:49.937Z,15.50
2023-04-26T15:07:30.798Z,15.80
2023-04-26T15:09:58.539Z,16.50
2023-04-26T15:12:25.351Z,17.80
2023-04-26T15:14:52.036Z,19.10
2023-04-26T15:17:18.839Z,19.40
2023-04-26T15:19:45.700Z,20.10
2023-04-26T15:22:13.758Z,19.60
2023-04-26T15:24:40.468Z,19.50
2023-04-26T15:27:07.211Z,20.90
2023-04-26T15:29:35.165Z,21.30
2023-04-26T15:32:01.979Z,21.90
2023-04-26T15:34:30.139Z,22.60
2023-04-26T15:37:00.293Z,23.60
2023-04-26T15:39:27.022Z,24.40
2023-04-26T15:41:53.758Z,23.90
2023-04-26T15:44:20.502Z,23.40
2023-04-26T15:46:47.233Z,23.50
2023-04-26T15:49:14.927Z,24.10
2023-04-26T15:51:42.563Z,24.50
2023-04-26T15:54:09.264Z,24.60
2023-04-26T15:56:36.329Z,24.60
2023-04-26T15:59:03.216Z,24.00
2023-04-26T16:01:29.948Z,23.20
2023-04-26T16:03:57.152Z,22.40
2023-04-26T16:06:24.025Z,21.50
2023-04-26T16:08:50.907Z,20.60
2023-04-26T16:11:17.710Z,19.90
2023-04-26T16:13:44.808Z,19.20
2023-04-26T16:16:11.910Z,18.50
2023-04-26T16:18:43.848Z,18.20
2023-04-26T16:21:12.170Z,17.40
2023-04-26T16:23:42.625Z,17.00
2023-04-26T16:26:09.721Z,16.60
2023-04-26T16:28:36.720Z,16.50
2023-04-26T16:31:03.605Z,16.40
2023-04-26T16:33:30.858Z,16.30
2023-04-26T16:35:57.658Z,16.30
2023-04-26T16:38:24.513Z,16.10
2023-04-26T16:40:58.639Z,15.90
2023-04-26T16:43:27.074Z,15.80
2023-04-26T16:46:01.582Z,15.50
2023-04-26T16:48:33.098Z,15.20
2023-04-26T16:51:06.375Z,15.00
2023-04-26T16:53:34.081Z,14.90
2023-04-26T16:56:01.139Z,14.80
2023-04-26T16:58:28.109Z,14.60
2023-04-26T17:00:54.856Z,14.70
2023-04-26T17:03:24.472Z,14.60
2023-04-26T17:05:51.667Z,14.60
2023-04-26T17:08:20.821Z,14.60
2023-04-26T17:10:48.082Z,14.50
2023-04-26T17:13:15.214Z,14.50
2023-04-26T17:15:42.284Z,14.40
2023-04-26T17:18:09.764Z,14.30
2023-04-26T17:20:36.816Z,14.20
2023-04-26T17:23:04.655Z,14.10
2023-04-26T17:25:31.551Z,14.00
2023-04-26T17:27:58.603Z,13.80
2023-04-26T17:30:25.538Z,13.70
2023-04-26T17:32:52.287Z,13.50
2023-04-26T17:35:19.040Z,13.30
2023-04-26T17:37:50.504Z,13.20
2023-04-26T17:40:18.392Z,13.20
2023-04-26T17:42:46.326Z,13.20
2023-04-26T17:45:14.136Z,13.30
2023-04-26T17:47:41.533Z,13.20
2023-04-26T17:50:09.392Z,13.00
2023-04-26T17:52:36.892Z,12.90
2023-04-26T17:55:09.864Z,12.80
2023-04-26T17:57:37.289Z,12.90
2023-04-26T18:00:06.718Z,12.80
2023-04-26T18:02:35.236Z,12.70
2023-04-26T18:05:03.403Z,12.70
2023-04-26T18:07:30.625Z,12.80
2023-04-26T18:09:57.306Z,12.60
2023-04-26T18:12:25.306Z,12.60
2023-04-26T18:14:54.838Z,12.40
2023-04-26T18:17:21.675Z,12.40
2023-04-26T18:19:48.543Z,12.30
2023-04-26T18:22:15.473Z,12.20
2023-04-26T18:24:42.613Z,12.10
2023-04-26T18:27:12.359Z,11.90
2023-04-26T18:29:39.002Z,11.90
2023-04-26T18:32:05.907Z,11.90
2023-04-26T18:34:32.916Z,11.80
2023-04-26T18:37:00.498Z,11.70
2023-04-26T18:39:27.231Z,11.70
2023-04-26T18:41:55.728Z,11.70
2023-04-26T18:44:23.429Z,11.60
2023-04-26T18:46:51.967Z,11.60
2023-04-26T18:49:19.154Z,11.50
2023-04-26T18:51:45.891Z,11.50
2023-04-26T18:54:12.597Z,11.40
2023-04-26T18:56:41.151Z,11.30
2023-04-26T18:59:08.230Z,11.30
2023-04-26T19:01:35.009Z,11.20
2023-04-26T19:04:02.327Z,11.20
2023-04-26T19:06:29.163Z,11.10
2023-04-26T19:08:55.920Z,11.10
2023-04-26T19:11:22.677Z,11.00
2023-04-26T19:13:49.435Z,11.00
2023-04-26T19:16:16.443Z,10.90
2023-04-26T19:18:46.590Z,10.90
2023-04-26T19:21:13.333Z,10.80
2023-04-26T19:23:40.039Z,10.80
2023-04-26T19:26:14.320Z,10.80
2023-04-26T19:28:41.555Z,10.70
2023-04-26T19:31:08.332Z,10.70
2023-04-26T19:33:35.114Z,10.70
2023-04-26T19:36:01.891Z,10.60
2023-04-26T19:38:30.385Z,10.60
2023-04-26T19:40:57.018Z,10.50
2023-04-26T19:43:23.811Z,10.50
2023-04-26T19:45:50.561Z,10.50
2023-04-26T19:48:17.280Z,10.50
2023-04-26T19:50:46.379Z,10.50
2023-04-26T19:53:14.680Z,10.50
2023-04-26T19:55:42.439Z,10.50
2023-04-26T19:58:10.363Z,10.40
2023-04-26T20:00:38.503Z,10.30
2023-04-26T20:03:06.086Z,10.10
2023-04-26T20:05:33.644Z,10.10
2023-04-26T20:08:01.748Z,9.90
2023-04-26T20:10:32.318Z,9.90
2023-04-26T20:13:00.527Z,9.70
2023-04-26T20:15:27.846Z,9.70
2023-04-26T20:17:55.090Z,9.70
2023-04-26T20:20:22.092Z,9.70
2023-04-26T20:22:48.892Z,9.70
2023-04-26T20:25:18.246Z,9.70
2023-04-26T20:27:45.598Z,9.60
2023-04-26T20:30:13.583Z,9.50
2023-04-26T20:32:40.660Z,9.50
2023-04-26T20:35:08.473Z,9.40
2023-04-26T20:37:35.912Z,9.30
2023-04-26T20:40:06.337Z,9.40
2023-04-26T20:42:33.415Z,9.40
2023-04-26T20:45:02.161Z,9.30
2023-04-26T20:47:32.273Z,9.30
2023-04-26T20:49:59.238Z,9.40
2023-04-26T20:52:26.184Z,9.40
2023-04-26T20:54:53.010Z,9.40
2023-04-26T20:57:19.726Z,9.30
2023-04-26T20:59:46.611Z,9.30
2023-04-26T21:02:13.518Z,9.30
2023-04-26T21:04:42.587Z,9.20
2023-04-26T21:07:10.108Z,9.20
2023-04-26T21:09:37.057Z,9.30
2023-04-26T21:12:04.816Z,9.30
2023-04-26T21:14:31.698Z,9.40
2023-04-26T21:16:58.731Z,9.30
2023-04-26T21:19:25.525Z,9.20
2023-04-26T21:21:52.308Z,9.10
2023-04-26T21:24:19.678Z,9.20
2023-04-26T21:26:46.420Z,9.10
2023-04-26T21:29:13.105Z,9.10
2023-04-26T21:31:39.866Z,9.10
2023-04-26T21:34:06.842Z,9.20
2023-04-26T21:36:33.943Z,9.20
2023-04-26T21:39:01.542Z,9.20
2023-04-26T21:41:28.418Z,9.20
2023-04-26T21:43:57.861Z,9.20
2023-04-26T21:46:26.148Z,9.10
2023-04-26T21:48:53.085Z,9.00
2023-04-26T21:51:20.050Z,9.00
2023-04-26T21:53:46.972Z,9.00
2023-04-26T21:56:14.731Z,8.90
2023-04-26T21:58:41.715Z,8.80
2023-04-26T22:01:10.054Z,8.80
2023-04-26T22:03:37.746Z,8.70
2023-04-26T22:06:05.944Z,8.60
2023-04-26T22:08:32.731Z,8.60
2023-04-26T22:11:00.116Z,8.50
2023-04-26T22:13:27.336Z,8.50
2023-04-26T22:15:54.361Z,8.50
2023-04-26T22:18:21.204Z,8.50
2023-04-26T22:20:48.006Z,8.50
2023-04-26T22:23:14.815Z,8.40
2023-04-26T22:25:41.516Z,8.40
2023-04-26T22:28:08.410Z,8.40
2023-04-26T22:30:35.173Z,8.40
2023-04-26T22:33:01.955Z,8.30
2023-04-26T22:35:29.240Z,8.30
2023-04-26T22:37:56.146Z,8.20
2023-04-26T22:40:22.882Z,8.10
2023-04-26T22:42:49.571Z,8.10
2023-04-26T22:45:16.350Z,8.00
2023-04-26T22:47:43.175Z,8.00
2023-04-26T22:50:10.501Z,8.00
2023-04-26T22:52:38.594Z,7.90
2023-04-26T22:55:06.218Z,7.80
2023-04-26T22:57:32.879Z,7.70
2023-04-26T22:59:59.654Z,7.60
2023-04-26T23:02:26.525Z,7.50
2023-04-26T23:04:53.499Z,7.50
2023-04-26T23:07:20.189Z,7.40
2023-04-26T23:09:47.453Z,7.30
2023-04-26T23:12:19.227Z,7.20
2023-04-26T23:14:47.999Z,7.20
2023-04-26T23:17:14.812Z,7.10
2023-04-26T23:19:42.374Z,7.00
2023-04-26T23:22:09.387Z,7.10
2023-04-26T23:24:36.731Z,7.00
2023-04-26T23:27:03.760Z,6.90
2023-04-26T23:29:30.858Z,6.80
2023-04-26T23:31:57.847Z,6.70
2023-04-26T23:34:24.994Z,6.70
2023-04-26T23:36:51.804Z,6.70
2023-04-26T23:39:18.617Z,6.80
2023-04-26T23:41:45.488Z,6.80
2023-04-26T23:44:12.245Z,6.80
2023-04-26T23:46:39.032Z,6.80
2023-04-26T23:49:06.080Z,7.00
2023-04-26T23:51:33.215Z,7.10
2023-04-26T23:53:59.983Z,7.10
2023-04-26T23:56:27.408Z,7.00
2023-04-26T23:58:54.733Z,7.10
